Pawcatuck, CT (06379)

5:19 PM EST on February 25, 2017 (GMT -0500)
Pawcatuck, CT | | Change Station

Elev 130 ft 41.38 °N, 71.85 °W | Updated 37 seconds ago

Fog
Fog
54.0 °F
Feels Like 54.0 °F
N
1.3
Wind Variable Wind from South
Gusts 2.7 mph

Today
High -- | Low -- °F
--% Chance of Precip.
Yesterday
High -- | Low -- °F
Precip. -- in
Pressure 29.56 in
Visibility 0.2 miles
Clouds
Dew Point 54 °F
Humidity 99%
Rainfall 0.00 in
Snow Depth Not available.
6:27 AM 5:33 PM
Waning Crescent, 1% visible
METAR KWST 252153Z AUTO 13008KT 1/4SM FG VV002 11/09 A2956 RMK AO2 SLP008 T01110094
Pressure 29.56 in
Visibility 0.2 miles
Clouds
Dew Point 54 °F
Humidity 99%
Rainfall 0.00 in
Snow Depth Not available.
6:27 AM 5:33 PM
Waning Crescent, 1% visible
METAR KWST 252153Z AUTO 13008KT 1/4SM FG VV002 11/09 A2956 RMK AO2 SLP008 T01110094

Get Your Daily Forecast Email!

Thanks for signing up!

Be on the lookout for a verification email in your inbox.

You'll start receiving the daily forecast at 8 AM.

×

10-Day Weather Forecast

Almanac

Astronomy

Feb. 25, 2017 Rise Set
Actual Time
Civil Twilight
Nautical Twilight
Astronomical Twilight
Moon
Length of Visible Light
Length of Day
Tomorrow will be .
, % of the Moon is Illuminated

Today's Extremes

State Highs State Lows

Community

WunderPhotos

Upload Photos

1,962,540 photos uploaded!

WunderBlog® & News

Nearby

Air Quality

  Air Quality AQ Index Pollutant
Not available.

Snow Depth

Station Depth Elevation

Earthquake Activity

City Distance Mag. Time & Date
Minimum magnitude displayed is 2.5.

Coastal Water Temperatures

Place Temperature

Stations

Nearby Weather Stations

Station Location Temp. Windchill Dew Point Humidity Wind Precip. Elev Updated Type
                   

Watches & Warnings

There are currently no watches in effect.